Time;durP1;ratioP1;P1;durP2;ratioP2;P2;SDS_P1;SDS_P2;PMS_P1;PMS_P2;Temp;Humidity;BMP_temperature;BMP_pressure;BME280_temperature;BME280_humidity;BME280_pressure;Samples;Min_cycle;Max_cycle;Signal;HPM_P1;HPM_P2
2023/12/31 00:00:43;;;;;;;32.22;20.17;;;;;;;2.45;100.00;100864.19;5030260;28;20065;-71
2023/12/31 00:03:08;;;;;;;36.50;20.88;;;;;;;2.86;100.00;100935.25;5030367;28;20037;-68
2023/12/31 00:05:35;;;;;;;35.85;19.73;;;;;;;2.38;100.00;100863.72;5030236;28;20195;-70
2023/12/31 00:08:01;;;;;;;35.45;19.63;;;;;;;2.72;100.00;100937.63;5030504;28;20049;-69
2023/12/31 00:10:26;;;;;;;36.58;20.48;;;;;;;2.55;100.00;100899.78;5030399;28;20041;-70
2023/12/31 00:12:51;;;;;;;30.25;20.23;;;;;;;2.80;100.00;100939.88;5030424;28;20037;-69
2023/12/31 00:15:17;;;;;;;34.50;20.50;;;;;;;2.65;100.00;100903.91;5029910;28;20124;-69
2023/12/31 00:17:42;;;;;;;34.83;20.92;;;;;;;2.35;100.00;100840.53;5030319;28;20033;-69
2023/12/31 00:20:08;;;;;;;37.50;21.13;;;;;;;2.91;100.00;100932.25;5031505;28;20044;-72
2023/12/31 00:22:34;;;;;;;34.35;20.35;;;;;;;2.86;100.00;100915.72;5032545;28;20057;-69
2023/12/31 00:24:59;;;;;;;39.75;22.42;;;;;;;2.88;100.00;100937.13;5032641;28;20025;-75
2023/12/31 00:27:25;;;;;;;36.42;20.35;;;;;;;2.81;100.00;100937.44;5032697;28;20523;-70
2023/12/31 00:29:50;;;;;;;33.30;21.58;;;;;;;2.67;100.00;100916.00;5032490;28;20044;-69
2023/12/31 00:32:16;;;;;;;34.35;20.90;;;;;;;2.81;100.00;100944.22;5032277;28;20025;-69
2023/12/31 00:34:42;;;;;;;35.85;20.88;;;;;;;2.69;100.00;100923.75;5032399;28;20025;-72
2023/12/31 00:37:07;;;;;;;34.08;20.33;;;;;;;2.89;100.00;100943.13;5032410;28;20017;-70
2023/12/31 00:39:33;;;;;;;31.83;19.17;;;;;;;2.87;100.00;100924.28;5032375;28;20030;-70
2023/12/31 00:41:58;;;;;;;34.30;20.80;;;;;;;3.01;100.00;100945.72;5013553;28;20116;-70
2023/12/31 00:44:24;;;;;;;27.63;19.42;;;;;;;2.98;100.00;100940.38;5032271;28;20488;-70
2023/12/31 00:46:50;;;;;;;31.92;19.67;;;;;;;3.01;100.00;100944.03;5031622;28;20104;-69
2023/12/31 00:49:16;;;;;;;33.80;21.00;;;;;;;3.00;100.00;100934.59;5032058;28;20032;-69
2023/12/31 00:51:43;;;;;;;33.47;20.45;;;;;;;3.02;100.00;100917.75;5031905;28;20039;-69
2023/12/31 00:54:09;;;;;;;29.48;18.75;;;;;;;3.14;100.00;100934.75;5031799;28;20404;-69
2023/12/31 00:56:34;;;;;;;31.85;18.23;;;;;;;3.15;100.00;100931.44;5032187;28;20044;-69
2023/12/31 00:59:01;;;;;;;32.72;19.65;;;;;;;3.14;100.00;100932.19;5031683;28;20021;-69
2023/12/31 01:01:27;;;;;;;29.92;18.90;;;;;;;3.16;100.00;100931.53;5031679;28;20068;-70
2023/12/31 01:03:52;;;;;;;29.85;19.70;;;;;;;3.18;100.00;100940.19;5031569;28;20060;-70
2023/12/31 01:06:18;;;;;;;30.15;18.85;;;;;;;3.13;100.00;100918.56;5032034;28;20026;-70
2023/12/31 01:08:43;;;;;;;29.90;19.63;;;;;;;3.28;100.00;100941.78;5031549;28;20033;-69
2023/12/31 01:11:09;;;;;;;31.67;18.88;;;;;;;3.30;100.00;100934.22;5031803;28;20029;-69
2023/12/31 01:13:34;;;;;;;28.10;19.42;;;;;;;3.04;100.00;100893.25;5031221;28;20033;-70
2023/12/31 01:16:00;;;;;;;31.70;18.40;;;;;;;2.83;100.00;100863.59;5031449;28;20155;-69
2023/12/31 01:18:25;;;;;;;28.80;19.50;;;;;;;3.19;100.00;100926.66;5031690;28;20108;-75
2023/12/31 01:20:50;;;;;;;34.78;20.40;;;;;;;3.31;100.00;100944.53;5031286;28;20037;-70
2023/12/31 01:23:16;;;;;;;32.60;20.10;;;;;;;3.30;100.00;100936.78;5031585;28;20036;-69
2023/12/31 01:25:42;;;;;;;31.95;18.73;;;;;;;3.25;100.00;100933.88;5031383;28;20029;-70
2023/12/31 01:28:08;;;;;;;32.70;20.05;;;;;;;3.22;100.00;100939.63;5031598;28;20056;-70
2023/12/31 01:30:33;;;;;;;37.08;19.67;;;;;;;3.25;100.00;100936.44;5031147;28;20029;-69
2023/12/31 01:32:59;;;;;;;30.10;18.77;;;;;;;3.21;100.00;100936.97;5031327;28;20037;-68
2023/12/31 01:35:24;;;;;;;31.67;20.25;;;;;;;3.24;100.00;100933.00;5031132;28;20064;-74
2023/12/31 01:37:50;;;;;;;28.90;19.50;;;;;;;3.24;100.00;100930.44;5031617;28;20057;-69
2023/12/31 01:40:15;;;;;;;30.17;18.70;;;;;;;3.26;100.00;100937.34;5031377;28;20022;-70
2023/12/31 01:42:41;;;;;;;28.55;19.05;;;;;;;3.24;100.00;100917.69;5031247;28;20026;-69
2023/12/31 01:45:07;;;;;;;34.67;20.20;;;;;;;3.32;100.00;100941.22;5030888;28;20443;-72
2023/12/31 01:47:34;;;;;;;30.70;19.75;;;;;;;3.20;100.00;100917.34;5030736;28;20108;-74
2023/12/31 01:50:03;;;;;;;32.03;20.00;;;;;;;3.12;100.00;100908.25;5030874;28;20132;-69
2023/12/31 01:52:29;;;;;;;34.83;18.45;;;;;;;3.23;100.00;100932.91;5030639;28;20025;-70
2023/12/31 01:54:57;;;;;;;32.20;18.92;;;;;;;3.19;100.00;100930.88;5030788;28;20075;-70
2023/12/31 01:57:28;;;;;;;31.30;19.50;;;;;;;3.23;100.00;100922.69;5029772;28;20036;-69
2023/12/31 02:00:14;;;;;;;30.10;18.08;;;;;;;3.27;100.00;100923.81;5031014;28;20065;-70
2023/12/31 02:02:43;;;;;;;30.08;19.75;;;;;;;3.32;100.00;100919.94;5008456;28;20128;-69
2023/12/31 02:05:08;;;;;;;28.30;18.90;;;;;;;3.35;100.00;100923.59;5008544;28;20048;-74
2023/12/31 02:07:33;;;;;;;29.45;18.63;;;;;;;2.96;100.00;100839.91;5008176;28;20046;-70
2023/12/31 02:09:59;;;;;;;29.73;18.42;;;;;;;3.39;100.00;100915.38;5008381;28;20038;-70
2023/12/31 02:12:25;;;;;;;28.80;18.35;;;;;;;3.38;100.00;100912.72;5008065;28;20420;-69
2023/12/31 02:14:50;;;;;;;29.73;18.73;;;;;;;2.93;100.00;100835.47;5008556;28;20041;-70
2023/12/31 02:17:16;;;;;;;30.67;19.52;;;;;;;3.37;100.00;100922.00;5008388;28;20041;-70
2023/12/31 02:19:41;;;;;;;28.50;18.42;;;;;;;3.29;100.00;100906.91;5008306;28;20042;-70
2023/12/31 02:22:08;;;;;;;27.70;17.98;;;;;;;2.98;100.00;100854.56;5007891;28;20489;-70
2023/12/31 02:24:46;;;;;;;25.83;16.42;;;;;;;3.27;100.00;100919.56;5008114;28;20472;-69
2023/12/31 02:27:12;;;;;;;27.75;18.42;;;;;;;3.21;100.00;100921.69;5005208;28;20045;-69
2023/12/31 02:29:38;;;;;;;27.23;18.25;;;;;;;3.19;100.00;100920.66;5008363;28;20132;-69
2023/12/31 02:32:03;;;;;;;29.63;18.42;;;;;;;3.23;100.00;100915.91;5008078;28;20038;-70
2023/12/31 02:34:29;;;;;;;28.98;19.95;;;;;;;3.23;100.00;100920.13;5026715;28;20042;-69
2023/12/31 02:36:54;;;;;;;31.40;21.08;;;;;;;2.72;100.00;100832.22;5029952;28;20389;-69
2023/12/31 02:39:20;;;;;;;28.55;18.55;;;;;;;3.17;100.00;100918.00;5030273;28;20446;-70
2023/12/31 02:41:45;;;;;;;29.83;19.90;;;;;;;3.12;100.00;100924.44;5030291;28;20029;-69
2023/12/31 02:44:10;;;;;;;29.80;18.90;;;;;;;3.13;100.00;100922.75;5030380;28;20073;-68
2023/12/31 02:46:36;;;;;;;30.20;19.33;;;;;;;2.32;100.00;100780.81;5030145;28;20033;-74
2023/12/31 02:49:06;;;;;;;34.38;20.02;;;;;;;3.15;100.00;100918.66;5030244;28;20036;-69
2023/12/31 02:51:32;;;;;;;31.17;20.30;;;;;;;2.97;100.00;100898.69;5030231;28;20025;-70
2023/12/31 02:53:57;;;;;;;32.17;19.75;;;;;;;3.04;100.00;100906.03;5029500;28;20036;-68
2023/12/31 02:56:23;;;;;;;41.15;21.25;;;;;;;3.11;100.00;100907.34;5029953;28;20026;-70
2023/12/31 02:58:49;;;;;;;28.15;19.60;;;;;;;3.13;100.00;100907.44;5030162;28;20096;-68
2023/12/31 03:01:14;;;;;;;30.73;18.92;;;;;;;3.15;100.00;100917.00;5030283;28;20040;-69
2023/12/31 03:03:40;;;;;;;30.42;19.23;;;;;;;2.72;100.00;100858.59;5028638;28;20407;-75
2023/12/31 03:06:05;;;;;;;31.83;20.75;;;;;;;3.04;100.00;100916.22;5029937;28;20503;-72
2023/12/31 03:08:31;;;;;;;33.35;20.25;;;;;;;2.93;100.00;100917.09;5030408;28;20072;-70
2023/12/31 03:10:57;;;;;;;35.75;21.77;;;;;;;2.72;100.00;100919.78;5033764;28;20099;-69
2023/12/31 03:13:22;;;;;;;35.95;23.17;;;;;;;2.22;100.00;100837.84;5033800;28;20079;-70
2023/12/31 03:15:48;;;;;;;48.83;28.77;;;;;;;2.65;100.00;100924.31;5032420;28;20518;-70
2023/12/31 03:18:13;;;;;;;52.17;27.77;;;;;;;2.53;100.00;100929.34;5033723;28;20083;-70
2023/12/31 03:20:39;;;;;;;64.63;33.97;;;;;;;1.89;100.00;100844.66;5033847;28;20419;-70
2023/12/31 03:23:04;;;;;;;65.25;33.47;;;;;;;2.35;100.00;100934.81;5033589;28;20108;-70
2023/12/31 03:25:30;;;;;;;58.30;30.70;;;;;;;2.39;100.00;100934.28;5033762;28;20021;-70
2023/12/31 03:27:55;;;;;;;45.65;26.52;;;;;;;2.37;100.00;100923.09;5033588;28;20371;-68
2023/12/31 03:30:20;;;;;;;42.03;23.00;;;;;;;2.28;100.00;100891.81;5014887;28;20057;-69
2023/12/31 03:32:46;;;;;;;37.25;22.50;;;;;;;2.56;100.00;100933.03;5033640;28;20138;-70
2023/12/31 03:35:11;;;;;;;35.25;21.90;;;;;;;2.53;100.00;100944.63;5032831;28;20038;-69
2023/12/31 03:37:38;;;;;;;36.30;22.00;;;;;;;2.54;100.00;100948.97;5033474;28;20117;-69
2023/12/31 03:40:05;;;;;;;39.22;22.95;;;;;;;2.55;100.00;100956.72;5033390;28;20026;-72
2023/12/31 03:42:30;;;;;;;36.08;21.58;;;;;;;2.57;100.00;100952.66;5028789;28;20207;-70
2023/12/31 03:44:56;;;;;;;37.03;21.75;;;;;;;2.52;100.00;100945.44;5032928;28;20511;-69
2023/12/31 03:47:23;;;;;;;37.63;21.95;;;;;;;2.60;100.00;100967.28;5033410;28;20049;-68
2023/12/31 03:49:48;;;;;;;33.65;22.67;;;;;;;2.56;100.00;100961.06;5014448;28;20033;-69
2023/12/31 03:52:14;;;;;;;34.28;21.08;;;;;;;2.59;100.00;100968.97;5032979;28;20403;-70
2023/12/31 03:54:41;;;;;;;37.28;21.35;;;;;;;2.63;100.00;100970.09;5032917;28;20037;-70
2023/12/31 03:57:06;;;;;;;42.42;24.02;;;;;;;2.68;100.00;100967.88;5033312;28;20492;-72
2023/12/31 03:59:32;;;;;;;49.60;22.90;;;;;;;2.34;100.00;100893.94;5033106;28;20025;-69
2023/12/31 04:01:58;;;;;;;36.53;21.55;;;;;;;2.43;100.00;100899.75;5033279;28;20092;-69
2023/12/31 04:04:25;;;;;;;36.97;20.20;;;;;;;2.71;100.00;100960.47;5032803;28;20543;-70
2023/12/31 04:06:51;;;;;;;35.15;21.30;;;;;;;1.87;100.00;100815.63;5032658;28;20113;-70
2023/12/31 04:09:16;;;;;;;34.85;20.30;;;;;;;2.84;100.00;100970.84;5032647;28;20021;-69
2023/12/31 04:11:42;;;;;;;31.60;20.35;;;;;;;2.84;100.00;100972.47;5032973;28;20033;-69
2023/12/31 04:14:08;;;;;;;35.72;23.30;;;;;;;2.56;100.00;100917.72;5032472;28;20499;-74
2023/12/31 04:16:33;;;;;;;37.63;21.33;;;;;;;2.89;100.00;100966.06;5032744;28;20791;-69
2023/12/31 04:18:59;;;;;;;40.00;23.40;;;;;;;2.91;100.00;100967.09;5032676;28;20057;-69
2023/12/31 04:21:24;;;;;;;31.95;21.67;;;;;;;2.89;100.00;100971.16;5031852;28;20115;-70
2023/12/31 04:23:50;;;;;;;32.95;20.67;;;;;;;2.69;100.00;100945.06;5032422;28;20373;-70
2023/12/31 04:26:16;;;;;;;38.53;21.25;;;;;;;2.47;100.00;100911.03;5032488;28;20419;-70
2023/12/31 04:28:41;;;;;;;38.03;22.85;;;;;;;2.83;100.00;100966.50;5032031;28;20048;-69
2023/12/31 04:31:08;;;;;;;39.38;21.92;;;;;;;2.87;100.00;100970.19;5032659;28;20393;-70
2023/12/31 04:33:34;;;;;;;38.13;21.45;;;;;;;2.97;100.00;100982.84;5032495;28;20447;-70
2023/12/31 04:36:03;;;;;;;39.95;22.73;;;;;;;3.07;100.00;100977.66;5032287;28;20029;-69
2023/12/31 04:38:28;;;;;;;34.95;20.50;;;;;;;2.79;100.00;100915.16;5030324;28;20059;-69
2023/12/31 04:40:54;;;;;;;34.58;21.23;;;;;;;3.16;100.00;100968.94;5032239;28;20660;-74
2023/12/31 04:43:21;;;;;;;33.92;21.45;;;;;;;2.74;100.00;100900.41;5032341;28;20681;-70
2023/12/31 04:45:46;;;;;;;36.05;21.67;;;;;;;3.14;100.00;100967.91;5031349;28;20511;-69
2023/12/31 04:48:12;;;;;;;31.00;22.13;;;;;;;3.27;100.00;100980.81;5032127;28;20029;-70
2023/12/31 04:50:37;;;;;;;32.72;20.42;;;;;;;3.22;100.00;100977.91;5032280;28;20030;-70
2023/12/31 04:53:03;;;;;;;38.17;20.50;;;;;;;3.19;100.00;100976.78;5031646;28;20604;-70
2023/12/31 04:55:30;;;;;;;37.05;22.17;;;;;;;3.10;100.00;100987.19;5032283;28;20163;-70
2023/12/31 04:57:56;;;;;;;40.78;22.33;;;;;;;3.03;100.00;100978.22;5012897;28;20034;-70
2023/12/31 05:00:21;;;;;;;37.72;22.25;;;;;;;3.00;100.00;100975.41;5031656;28;20045;-68
2023/12/31 05:02:47;;;;;;;34.58;21.58;;;;;;;2.99;100.00;100973.66;5032194;28;20038;-69
2023/12/31 05:05:12;;;;;;;36.53;21.75;;;;;;;2.93;100.00;100973.19;5029621;28;20048;-69
2023/12/31 05:07:38;;;;;;;39.03;24.10;;;;;;;2.91;100.00;100982.38;5031645;28;20044;-69
2023/12/31 05:10:04;;;;;;;35.53;23.92;;;;;;;2.85;100.00;100969.16;4996885;28;20068;-72
2023/12/31 05:12:30;;;;;;;41.65;22.42;;;;;;;2.55;100.00;100935.47;5031683;28;20430;-70
2023/12/31 05:14:55;;;;;;;33.65;21.58;;;;;;;2.64;100.00;100970.97;5031756;28;20048;-73
2023/12/31 05:17:21;;;;;;;35.20;22.00;;;;;;;2.48;100.00;100979.09;5031440;28;20025;-69
2023/12/31 05:19:47;;;;;;;43.72;23.45;;;;;;;2.18;100.00;100943.72;5031312;28;20021;-68
2023/12/31 05:22:13;;;;;;;39.05;23.65;;;;;;;2.30;100.00;100979.44;5030917;28;20159;-70
2023/12/31 05:24:38;;;;;;;43.65;24.58;;;;;;;1.93;100.00;100913.78;5030261;28;20112;-70
2023/12/31 05:27:04;;;;;;;42.55;25.55;;;;;;;2.25;100.00;100965.44;5026783;28;20373;-69
2023/12/31 05:29:29;;;;;;;37.75;23.73;;;;;;;2.16;100.00;100946.91;5031396;28;20036;-69
2023/12/31 05:31:55;;;;;;;41.63;24.83;;;;;;;2.19;100.00;100954.78;5030916;28;20029;-69
2023/12/31 05:34:20;;;;;;;42.33;24.50;;;;;;;2.23;100.00;100975.53;5031310;28;20026;-70
2023/12/31 05:36:46;;;;;;;42.78;24.60;;;;;;;2.23;100.00;100965.34;5031805;28;20029;-70
2023/12/31 05:39:12;;;;;;;36.78;22.90;;;;;;;2.31;100.00;100987.97;5047032;28;20052;-70
2023/12/31 05:41:37;;;;;;;38.63;24.88;;;;;;;2.19;100.00;100977.69;5031763;28;20030;-72
2023/12/31 05:44:03;;;;;;;41.53;26.17;;;;;;;2.16;100.00;100992.75;5031902;28;20393;-70
2023/12/31 05:46:29;;;;;;;43.58;24.67;;;;;;;2.19;100.00;100988.75;5031465;28;20028;-70
2023/12/31 05:48:55;;;;;;;37.38;24.05;;;;;;;2.06;100.00;100968.22;5031203;28;20029;-70
2023/12/31 05:51:21;;;;;;;38.00;24.73;;;;;;;2.21;100.00;100994.88;5029012;28;20044;-76
2023/12/31 05:53:46;;;;;;;44.95;24.33;;;;;;;1.81;100.00;100930.63;5031157;28;20030;-70
2023/12/31 05:56:12;;;;;;;37.00;23.35;;;;;;;2.20;100.00;100994.78;5031402;28;20033;-70
2023/12/31 05:58:38;;;;;;;47.28;27.10;;;;;;;1.86;100.00;100928.44;5031289;28;20022;-69
2023/12/31 06:01:03;;;;;;;38.72;24.15;;;;;;;2.18;100.00;101002.31;5031099;28;20039;-69
2023/12/31 06:03:29;;;;;;;41.55;25.70;;;;;;;2.16;100.00;100991.09;5030988;28;20025;-69
2023/12/31 06:05:54;;;;;;;44.30;25.55;;;;;;;2.15;100.00;100999.50;5031145;28;20033;-68
2023/12/31 06:08:20;;;;;;;42.92;25.33;;;;;;;1.42;100.00;100865.59;5031168;28;20550;-69
2023/12/31 06:10:45;;;;;;;42.88;25.35;;;;;;;2.07;100.00;100982.72;5013298;28;20040;-69
2023/12/31 06:13:11;;;;;;;39.33;25.38;;;;;;;2.12;100.00;100993.25;5029790;28;20052;-70
2023/12/31 06:15:36;;;;;;;41.90;26.23;;;;;;;2.09;100.00;100982.09;5030297;28;20403;-71
2023/12/31 06:18:02;;;;;;;39.85;24.83;;;;;;;2.13;100.00;100995.03;5029187;28;20018;-70
2023/12/31 06:20:28;;;;;;;46.13;25.17;;;;;;;2.15;100.00;100993.53;5030586;28;20058;-69
2023/12/31 06:22:53;;;;;;;43.17;26.08;;;;;;;2.15;100.00;101001.16;5027782;28;20022;-72
2023/12/31 06:25:19;;;;;;;45.17;25.80;;;;;;;2.03;100.00;100980.69;5030990;28;20024;-70
2023/12/31 06:27:45;;;;;;;39.85;25.05;;;;;;;1.70;100.00;100922.13;5028454;28;20128;-70
2023/12/31 06:30:11;;;;;;;42.50;25.23;;;;;;;2.18;100.00;101011.59;5029881;28;20121;-71
2023/12/31 06:32:36;;;;;;;46.65;24.90;;;;;;;2.20;100.00;101004.97;5027222;28;20694;-72
2023/12/31 06:35:03;;;;;;;37.67;24.70;;;;;;;1.81;100.00;100935.72;5028607;28;20507;-71
2023/12/31 06:37:28;;;;;;;40.90;24.92;;;;;;;2.23;100.00;100997.53;5030020;28;20100;-71
2023/12/31 06:39:54;;;;;;;43.30;25.35;;;;;;;2.30;100.00;101002.34;5028574;28;20540;-73
2023/12/31 06:42:19;;;;;;;45.03;26.00;;;;;;;2.36;100.00;101005.38;5028288;28;20045;-76
2023/12/31 06:44:45;;;;;;;40.15;27.40;;;;;;;2.38;100.00;100995.31;5028173;28;20116;-70
2023/12/31 06:47:10;;;;;;;47.00;26.23;;;;;;;2.20;100.00;100944.69;5028362;28;20033;-73
2023/12/31 06:49:36;;;;;;;47.08;27.60;;;;;;;2.28;100.00;100946.97;5028937;28;20036;-69
2023/12/31 06:52:02;;;;;;;40.33;25.55;;;;;;;2.67;100.00;101005.22;5029718;28;20098;-73
2023/12/31 06:54:28;;;;;;;47.55;28.73;;;;;;;2.35;100.00;100955.19;5028516;28;20037;-72
2023/12/31 06:56:53;;;;;;;49.65;27.27;;;;;;;2.73;100.00;101012.47;5030143;28;20037;-70
2023/12/31 06:59:19;;;;;;;46.30;27.13;;;;;;;2.79;100.00;101022.25;5027649;28;20784;-74
2023/12/31 07:01:44;;;;;;;42.58;26.73;;;;;;;2.67;100.00;100995.03;5029286;28;20100;-71
2023/12/31 07:04:10;;;;;;;46.50;27.33;;;;;;;2.88;100.00;101023.84;5029585;28;20525;-69
2023/12/31 07:06:35;;;;;;;43.15;26.55;;;;;;;2.97;100.00;101021.09;5022472;28;20033;-71
2023/12/31 07:09:01;;;;;;;45.42;26.73;;;;;;;2.96;100.00;101015.91;5028071;28;20074;-71
2023/12/31 07:11:26;;;;;;;45.55;27.67;;;;;;;3.13;100.00;101022.25;5028818;28;20171;-69
2023/12/31 07:13:52;;;;;;;58.30;29.35;;;;;;;3.15;100.00;101025.81;5030149;28;20068;-72
2023/12/31 07:16:18;;;;;;;49.05;28.70;;;;;;;3.27;100.00;101036.09;5029602;28;20554;-71
2023/12/31 07:18:44;;;;;;;42.42;27.77;;;;;;;3.24;100.00;101032.50;5029748;28;20026;-68
2023/12/31 07:21:19;;;;;;;50.13;27.95;;;;;;;3.22;100.00;101030.63;5029840;28;20492;-69
2023/12/31 07:23:45;;;;;;;49.55;27.85;;;;;;;3.00;100.00;100974.53;5028517;28;20119;-70
2023/12/31 07:26:10;;;;;;;45.63;29.08;;;;;;;3.34;100.00;101034.09;5030005;28;20033;-73
2023/12/31 07:28:35;;;;;;;50.42;31.08;;;;;;;3.30;100.00;101036.28;5029430;28;20064;-70
2023/12/31 07:31:01;;;;;;;54.55;31.77;;;;;;;3.29;100.00;101029.41;5029357;28;20060;-74
2023/12/31 07:33:27;;;;;;;52.00;31.65;;;;;;;3.24;100.00;101008.69;5029239;28;20108;-69
2023/12/31 07:35:53;;;;;;;52.33;30.95;;;;;;;3.47;100.00;101028.25;5029199;28;20044;-70
2023/12/31 07:38:20;;;;;;;58.90;33.47;;;;;;;3.52;100.00;101032.00;5029663;28;20030;-70
2023/12/31 07:40:45;;;;;;;65.38;36.22;;;;;;;3.60;100.00;101032.59;5029729;28;20029;-70
2023/12/31 07:43:10;;;;;;;57.42;34.63;;;;;;;3.30;100.00;100985.25;5029954;28;20407;-70
2023/12/31 07:45:36;;;;;;;52.83;31.48;;;;;;;3.63;100.00;101022.59;5029339;28;20032;-70
2023/12/31 07:48:02;;;;;;;50.70;32.42;;;;;;;3.30;100.00;100963.19;5029659;28;20033;-71
2023/12/31 07:50:27;;;;;;;56.17;33.17;;;;;;;3.37;100.00;100969.63;5029532;28;20029;-70
2023/12/31 07:52:53;;;;;;;50.13;31.58;;;;;;;3.85;100.00;101050.63;5029257;28;20527;-71
2023/12/31 07:55:18;;;;;;;53.60;30.35;;;;;;;3.74;100.00;101033.63;5028101;28;20032;-69
2023/12/31 07:57:43;;;;;;;55.10;31.05;;;;;;;3.92;100.00;101044.28;5030688;28;20076;-70
2023/12/31 08:00:10;;;;;;;48.80;30.17;;;;;;;4.01;100.00;101049.16;5032504;28;20018;-72
2023/12/31 08:02:36;;;;;;;54.72;30.95;;;;;;;3.76;100.00;101006.50;5032612;28;20511;-70
2023/12/31 08:05:02;;;;;;;45.33;30.13;;;;;;;4.14;100.00;101054.41;5032926;28;20026;-70
2023/12/31 08:07:28;;;;;;;44.38;28.33;;;;;;;4.22;100.00;101057.50;5032891;28;20029;-70
2023/12/31 08:09:55;;;;;;;50.58;29.60;;;;;;;4.30;100.00;101058.03;5032689;28;20472;-69
2023/12/31 08:12:20;;;;;;;50.78;29.52;;;;;;;4.36;100.00;101056.84;5033162;28;20057;-76
2023/12/31 08:14:46;;;;;;;52.00;30.80;;;;;;;4.44;100.00;101065.03;5032446;28;20513;-69
2023/12/31 08:17:13;;;;;;;53.20;29.20;;;;;;;4.53;100.00;101062.25;5032986;28;20030;-69
2023/12/31 08:19:38;;;;;;;52.95;32.38;;;;;;;4.59;100.00;101059.25;5031381;28;20507;-70
2023/12/31 08:22:04;;;;;;;59.67;32.65;;;;;;;4.64;100.00;101056.22;5032592;28;20026;-76
2023/12/31 08:24:29;;;;;;;66.72;33.38;;;;;;;4.64;100.00;101047.66;5032526;28;20065;-74
2023/12/31 08:26:55;;;;;;;52.42;31.90;;;;;;;4.60;100.00;101041.44;5020985;28;20038;-69
2023/12/31 08:29:21;;;;;;;61.33;32.78;;;;;;;4.74;100.00;101070.53;5031071;28;20462;-70
2023/12/31 08:31:49;;;;;;;49.67;30.33;;;;;;;4.47;100.00;101016.66;5032315;28;20128;-70
2023/12/31 08:34:15;;;;;;;54.27;32.10;;;;;;;4.48;100.00;101015.00;5030931;28;20033;-72
2023/12/31 08:36:40;;;;;;;51.45;30.98;;;;;;;4.84;100.00;101072.06;5032467;28;20033;-69
2023/12/31 08:39:06;;;;;;;49.35;32.00;;;;;;;4.82;100.00;101071.06;5032742;28;20109;-72
2023/12/31 08:41:35;;;;;;;49.15;30.52;;;;;;;4.85;100.00;101066.19;5031966;28;20420;-70
2023/12/31 08:44:00;;;;;;;52.05;31.02;;;;;;;4.90;100.00;101064.81;5031934;28;20064;-70
2023/12/31 08:46:26;;;;;;;54.03;30.80;;;;;;;4.93;100.00;101066.72;5032300;28;20094;-70
2023/12/31 08:48:51;;;;;;;56.40;32.75;;;;;;;5.00;100.00;101062.13;5032086;28;20518;-70
2023/12/31 08:51:17;;;;;;;50.33;31.83;;;;;;;5.10;100.00;101070.44;5032010;28;20033;-70
2023/12/31 08:53:42;;;;;;;49.72;31.75;;;;;;;5.14;100.00;101074.97;5032239;28;20112;-70
2023/12/31 08:56:08;;;;;;;51.85;31.15;;;;;;;5.21;100.00;101069.50;5031810;28;20025;-72
2023/12/31 08:58:33;;;;;;;51.53;31.40;;;;;;;5.24;100.00;101062.00;5031890;28;20175;-71
2023/12/31 09:00:59;;;;;;;54.85;31.52;;;;;;;5.25;100.00;101045.00;5031779;28;20071;-71
2023/12/31 09:03:24;;;;;;;51.97;31.13;;;;;;;5.40;100.00;101051.13;5032308;28;20045;-71
2023/12/31 09:05:50;;;;;;;48.33;32.35;;;;;;;5.46;100.00;101045.56;5031949;28;20502;-70
2023/12/31 09:08:16;;;;;;;57.92;32.97;;;;;;;5.53;100.00;101047.72;5031886;28;20025;-70
2023/12/31 09:10:43;;;;;;;49.83;32.17;;;;;;;5.50;100.00;101044.97;5028928;28;20049;-73
2023/12/31 09:13:08;;;;;;;49.05;32.33;;;;;;;5.50;100.00;101009.09;5031646;28;20029;-74
2023/12/31 09:15:36;;;;;;;54.40;34.55;;;;;;;5.67;100.00;101036.72;5030623;28;20035;-74
2023/12/31 09:18:01;;;;;;;52.35;33.22;;;;;;;5.71;100.00;101026.66;5031832;28;20020;-71
2023/12/31 09:20:27;;;;;;;52.38;33.75;;;;;;;5.80;100.00;101040.09;5031361;28;20034;-69
2023/12/31 09:22:53;;;;;;;58.33;33.85;;;;;;;5.82;100.00;101025.72;5031856;28;20025;-73
2023/12/31 09:25:21;;;;;;;52.35;32.25;;;;;;;5.86;100.00;101026.78;5029429;28;20025;-74
2023/12/31 09:27:48;;;;;;;55.30;32.40;;;;;;;5.89;100.00;101012.47;5030572;28;20061;-74
2023/12/31 09:30:14;;;;;;;49.28;30.50;;;;;;;5.96;100.00;101001.84;5022077;28;20041;-74
2023/12/31 09:32:41;;;;;;;44.30;29.77;;;;;;;6.09;100.00;101015.47;5011494;28;20116;-74
2023/12/31 09:35:08;;;;;;;48.17;30.60;;;;;;;6.15;100.00;101013.31;5026612;28;20041;-73
2023/12/31 09:37:34;;;;;;;44.97;31.25;;;;;;;6.20;100.00;101004.22;5030886;28;20052;-74
2023/12/31 09:39:59;;;;;;;44.55;29.38;;;;;;;6.33;100.00;101000.78;5031119;28;20473;-73
2023/12/31 09:42:46;;;;;;;46.00;29.20;;;;;;;6.51;100.00;101001.03;5031308;28;20021;-73
2023/12/31 09:45:14;;;;;;;49.78;29.52;;;;;;;6.67;100.00;100994.25;5031390;28;20472;-74
2023/12/31 09:47:43;;;;;;;43.58;27.95;;;;;;;6.65;100.00;100965.94;5031487;28;20095;-74
2023/12/31 09:50:09;;;;;;;51.80;27.58;;;;;;;6.51;100.00;100923.19;5012616;28;20041;-74
2023/12/31 09:52:36;;;;;;;42.28;27.75;;;;;;;6.88;100.00;100972.47;5012429;28;20030;-74
2023/12/31 09:55:02;;;;;;;43.63;27.08;;;;;;;7.08;100.00;100996.75;5030011;28;20036;-74
2023/12/31 09:57:33;;;;;;;45.63;28.13;;;;;;;7.31;100.00;100991.22;5031419;28;20025;-73
2023/12/31 10:00:01;;;;;;;46.10;26.63;;;;;;;7.43;100.00;100989.38;5011348;28;20472;-73
2023/12/31 10:02:27;;;;;;;45.90;28.30;;;;;;;7.51;100.00;100992.38;5011291;28;20059;-73
2023/12/31 10:04:54;;;;;;;41.55;27.45;;;;;;;7.52;100.00;100961.63;5009310;28;20426;-73
2023/12/31 10:07:20;;;;;;;40.28;26.65;;;;;;;7.75;100.00;100977.44;5011105;28;20065;-73
2023/12/31 10:09:46;;;;;;;38.80;26.17;;;;;;;7.08;100.00;100859.81;5023125;28;20510;-74
2023/12/31 10:12:12;;;;;;;39.03;25.73;;;;;;;7.81;100.00;100969.22;5029369;28;20475;-73
2023/12/31 10:14:37;;;;;;;40.08;25.17;;;;;;;7.60;100.00;100923.50;5030850;28;20057;-73
2023/12/31 10:17:07;;;;;;;45.08;25.67;;;;;;;7.92;100.00;100976.75;5031032;28;20029;-74
2023/12/31 10:19:33;;;;;;;36.50;23.77;;;;;;;7.89;100.00;100962.84;5030173;28;20033;-72
2023/12/31 10:21:59;;;;;;;39.00;25.00;;;;;;;7.92;100.00;100951.03;5030575;28;20047;-74
2023/12/31 10:24:29;;;;;;;39.10;25.08;;;;;;;7.80;100.00;100929.78;5028355;28;20489;-75
2023/12/31 10:27:01;;;;;;;40.55;25.70;;;;;;;8.04;100.00;100957.66;5030791;28;20057;-76
2023/12/31 10:29:27;;;;;;;37.90;25.83;;;;;;;7.67;100.00;100896.50;5030629;28;20515;-75
2023/12/31 10:31:53;;;;;;;38.42;25.13;;;;;;;8.09;100.00;100958.78;5030625;28;20110;-75
2023/12/31 10:34:19;;;;;;;39.50;23.90;;;;;;;8.15;100.00;100968.50;5030525;28;20025;-74
2023/12/31 10:36:46;;;;;;;38.33;25.15;;;;;;;8.28;100.00;100973.53;5029475;28;20026;-74
2023/12/31 10:39:41;;;;;;;35.00;24.00;;;;;;;8.32;100.00;100954.88;5031001;28;20124;-74
2023/12/31 10:42:07;;;;;;;37.33;23.95;;;;;;;8.40;100.00;100956.19;4969294;28;20071;-75
2023/12/31 10:44:36;;;;;;;39.17;25.38;;;;;;;8.09;100.00;100884.22;4969420;28;20218;-74
2023/12/31 10:47:04;;;;;;;;;;;;;;;8.52;100.00;100948.28;4969602;28;20435;-73
2023/12/31 10:49:32;;;;;;;37.70;22.40;;;;;;;8.57;100.00;100933.94;4969473;28;19976;-74
2023/12/31 10:52:01;;;;;;;36.60;23.30;;;;;;;8.60;100.00;100927.19;4968932;28;20544;-71
2023/12/31 10:54:50;;;;;;;35.50;22.67;;;;;;;8.71;100.00;100915.75;4969325;28;20038;-76
2023/12/31 10:57:22;;;;;;;;;;;;;;;8.86;100.00;100916.56;4969418;28;20037;-75
2023/12/31 10:59:49;;;;;;;35.72;22.30;;;;;;;8.91;100.00;100914.22;4969237;28;19941;-75
2023/12/31 11:02:17;;;;;;;34.97;20.67;;;;;;;8.80;100.00;100893.06;4930735;29;20055;-75
2023/12/31 11:04:50;;;;;;;52.42;22.85;;;;;;;8.92;100.00;100897.06;4930779;29;20833;-74